Time;durP1;ratioP1;P1;durP2;ratioP2;P2;SDS_P1;SDS_P2;PMS_P1;PMS_P2;Temp;Humidity;BMP_temperature;BMP_pressure;BME280_temperature;BME280_humidity;BME280_pressure;Samples;Min_cycle;Max_cycle;Signal;HPM_P1;HPM_P2
2023/08/12 00:02:36;;;;;;;6.32;2.88;;;;;;;;;;20924957;28;20045;-61
2023/08/12 00:12:38;;;;;;;5.35;2.58;;;;;;;;;;20923063;28;20053;-62
2023/08/12 00:22:39;;;;;;;3.72;2.13;;;;;;;;;;20923535;28;20048;-62
2023/08/12 00:32:41;;;;;;;5.03;2.42;;;;;;;;;;20922669;28;20537;-61
2023/08/12 00:42:42;;;;;;;7.45;3.20;;;;;;;;;;20922168;28;20045;-62
2023/08/12 00:52:43;;;;;;;6.93;2.45;;;;;;;;;;20920266;28;20049;-62
2023/08/12 01:02:47;;;;;;;4.90;2.20;;;;;;;;;;20919294;28;20041;-62
2023/08/12 01:12:58;;;;;;;7.00;1.83;;;;;;;;;;20920178;28;20095;-62
2023/08/12 01:23:08;;;;;;;5.72;2.08;;;;;;;;;;20917052;28;20044;-62
2023/08/12 01:33:11;;;;;;;5.43;1.90;;;;;;;;;;20918145;28;20055;-61
2023/08/12 01:43:12;;;;;;;3.85;1.55;;;;;;;;;;20918096;28;20483;-62
2023/08/12 01:53:14;;;;;;;12.60;1.95;;;;;;;;;;20915629;28;20045;-60
2023/08/12 02:03:15;;;;;;;4.32;1.70;;;;;;;;;;20915925;28;20045;-61
2023/08/12 02:13:16;;;;;;;7.10;2.28;;;;;;;;;;20914783;28;20414;-61
2023/08/12 02:23:17;;;;;;;5.07;2.00;;;;;;;;;;20914936;28;20046;-61
2023/08/12 02:33:18;;;;;;;7.47;2.10;;;;;;;;;;20914686;28;20089;-61
2023/08/12 02:43:19;;;;;;;5.25;1.90;;;;;;;;;;20913825;28;20495;-62
2023/08/12 02:53:20;;;;;;;5.45;1.88;;;;;;;;;;20913657;28;20049;-62
2023/08/12 03:03:21;;;;;;;5.43;2.25;;;;;;;;;;20913047;28;20041;-62
2023/08/12 03:13:22;;;;;;;4.10;2.00;;;;;;;;;;20912018;28;20132;-62
2023/08/12 03:23:23;;;;;;;5.60;2.13;;;;;;;;;;20912718;28;20474;-62
2023/08/12 03:33:25;;;;;;;3.78;1.50;;;;;;;;;;20912349;28;20107;-61
2023/08/12 03:43:26;;;;;;;6.53;1.50;;;;;;;;;;20910317;28;20095;-62
2023/08/12 03:53:27;;;;;;;5.63;1.38;;;;;;;;;;20922447;28;20048;-62
2023/08/12 04:03:28;;;;;;;3.40;1.60;;;;;;;;;;20925621;28;20047;-63
2023/08/12 04:13:29;;;;;;;6.50;1.73;;;;;;;;;;20923970;28;20118;-61
2023/08/12 04:23:30;;;;;;;3.42;1.70;;;;;;;;;;20922493;28;20088;-63
2023/08/12 04:33:31;;;;;;;3.90;1.75;;;;;;;;;;20923379;28;20052;-63
2023/08/12 04:43:32;;;;;;;3.40;1.80;;;;;;;;;;20922696;28;20048;-61
2023/08/12 04:53:34;;;;;;;3.28;1.70;;;;;;;;;;20921448;28;20045;-61
2023/08/12 05:03:35;;;;;;;5.70;1.33;;;;;;;;;;20919526;28;20512;-62
2023/08/12 05:13:36;;;;;;;2.83;1.73;;;;;;;;;;20919331;28;20056;-61
2023/08/12 05:23:37;;;;;;;5.80;2.05;;;;;;;;;;20919175;28;20441;-61
2023/08/12 05:33:38;;;;;;;4.07;1.90;;;;;;;;;;20918430;28;20053;-61
2023/08/12 05:43:39;;;;;;;3.08;1.80;;;;;;;;;;20916341;28;20048;-61
2023/08/12 05:53:40;;;;;;;5.22;2.05;;;;;;;;;;20915335;28;20084;-61
2023/08/12 06:03:41;;;;;;;4.18;2.00;;;;;;;;;;20914451;28;20037;-62
2023/08/12 06:13:42;;;;;;;3.45;1.90;;;;;;;;;;20914015;28;20057;-62
2023/08/12 06:23:43;;;;;;;4.65;2.05;;;;;;;;;;20913949;28;20045;-62
2023/08/12 06:33:45;;;;;;;7.28;2.20;;;;;;;;;;20913742;28;20049;-62
2023/08/12 06:43:46;;;;;;;7.50;2.03;;;;;;;;;;20911774;28;20044;-62
2023/08/12 06:53:47;;;;;;;7.40;2.22;;;;;;;;;;20913260;28;20053;-62
2023/08/12 07:03:48;;;;;;;5.53;2.38;;;;;;;;;;20912369;28;20128;-60
2023/08/12 07:13:49;;;;;;;6.43;2.55;;;;;;;;;;20911443;28;20045;-61
2023/08/12 07:23:50;;;;;;;9.70;2.30;;;;;;;;;;20916314;28;20045;-62
2023/08/12 07:33:51;;;;;;;9.10;3.47;;;;;;;;;;20927078;28;20124;-63
2023/08/12 07:43:52;;;;;;;6.05;1.73;;;;;;;;;;20925672;28;20045;-62
2023/08/12 07:53:53;;;;;;;6.80;2.47;;;;;;;;;;20925779;28;20107;-62
2023/08/12 08:03:54;;;;;;;10.02;2.72;;;;;;;;;;20924474;28;20041;-62
2023/08/12 08:13:55;;;;;;;12.95;2.72;;;;;;;;;;20923171;28;20407;-62
2023/08/12 08:23:57;;;;;;;5.88;2.40;;;;;;;;;;20922653;28;20501;-61
2023/08/12 08:33:58;;;;;;;5.35;2.22;;;;;;;;;;20921977;28;20049;-63
2023/08/12 08:44:03;;;;;;;7.68;2.38;;;;;;;;;;20921531;28;20071;-62
2023/08/12 08:54:04;;;;;;;8.55;2.42;;;;;;;;;;20920468;28;20524;-62
2023/08/12 09:04:06;;;;;;;8.95;3.28;;;;;;;;;;20920105;28;20045;-62
2023/08/12 09:14:08;;;;;;;10.10;3.05;;;;;;;;;;20919114;28;20061;-62
2023/08/12 09:24:09;;;;;;;9.75;3.40;;;;;;;;;;20918540;28;20040;-62
2023/08/12 09:34:11;;;;;;;10.10;4.25;;;;;;;;;;20917960;28;20061;-62
2023/08/12 09:44:14;;;;;;;9.13;3.10;;;;;;;;;;20916526;28;20525;-62
2023/08/12 09:54:17;;;;;;;7.88;2.78;;;;;;;;;;20914915;28;20092;-63
2023/08/12 10:04:18;;;;;;;8.15;2.60;;;;;;;;;;20915315;28;20056;-63
2023/08/12 10:14:19;;;;;;;10.68;2.80;;;;;;;;;;20955446;28;20085;-63
2023/08/12 10:24:22;;;;;;;9.50;2.63;;;;;;;;;;20997185;28;20072;-62
2023/08/12 10:34:25;;;;;;;7.03;2.40;;;;;;;;;;20996777;28;20052;-63
2023/08/12 10:44:54;;;;;;;49.17;7.47;;;;;;;;;;20996249;28;20547;-62
2023/08/12 10:54:55;;;;;;;7.85;2.60;;;;;;;;;;20994897;28;20045;-62
2023/08/12 11:05:05;;;;;;;6.85;2.47;;;;;;;;;;21012614;28;20044;-61
2023/08/12 11:15:07;;;;;;;7.63;2.28;;;;;;;;;;21010516;28;20541;-62
2023/08/12 11:25:10;;;;;;;9.40;2.45;;;;;;;;;;21010996;28;20071;-61
2023/08/12 11:35:12;;;;;;;8.95;2.50;;;;;;;;;;21008971;28;20045;-64
2023/08/12 11:45:13;;;;;;;6.65;2.25;;;;;;;;;;21007831;28;20040;-62
2023/08/12 11:55:15;;;;;;;4.82;2.22;;;;;;;;;;21008555;28;20478;-63
2023/08/12 12:05:17;;;;;;;7.05;1.88;;;;;;;;;;21006499;28;20048;-62
2023/08/12 12:15:18;;;;;;;7.57;2.10;;;;;;;;;;21005607;28;20057;-63
2023/08/12 12:25:19;;;;;;;6.32;2.25;;;;;;;;;;21006602;28;20052;-64
2023/08/12 12:35:20;;;;;;;7.53;2.28;;;;;;;;;;21005998;28;20048;-62
2023/08/12 12:45:21;;;;;;;8.52;2.38;;;;;;;;;;21004216;28;20101;-63
2023/08/12 12:55:22;;;;;;;6.47;1.98;;;;;;;;;;21005022;28;20045;-63
2023/08/12 13:05:23;;;;;;;9.75;1.70;;;;;;;;;;21002666;28;20082;-62
2023/08/12 13:15:26;;;;;;;3.40;1.55;;;;;;;;;;21001532;28;20052;-62
2023/08/12 13:25:33;;;;;;;5.38;2.95;;;;;;;;;;21000863;28;20080;-62
2023/08/12 13:35:34;;;;;;;3.33;1.50;;;;;;;;;;21000948;28;20048;-63
2023/08/12 13:45:36;;;;;;;3.60;1.45;;;;;;;;;;21001054;28;20047;-62
2023/08/12 13:55:45;;;;;;;3.97;1.60;;;;;;;;;;21068937;27;20481;-62
2023/08/12 14:05:46;;;;;;;16.10;9.07;;;;;;;;;;21067522;28;20053;-62
2023/08/12 14:15:47;;;;;;;3.53;1.88;;;;;;;;;;21066728;28;20040;-62
2023/08/12 14:25:49;;;;;;;4.07;1.50;;;;;;;;;;21067488;28;20098;-63
2023/08/12 14:35:51;;;;;;;4.82;1.90;;;;;;;;;;21067329;28;20098;-63
2023/08/12 14:45:52;;;;;;;6.80;1.52;;;;;;;;;;21065592;28;20051;-63
2023/08/12 14:55:53;;;;;;;2.85;1.75;;;;;;;;;;21065161;28;20560;-62
2023/08/12 15:06:01;;;;;;;4.45;1.70;;;;;;;;;;21015216;28;20132;-62
2023/08/12 15:16:02;;;;;;;4.55;1.67;;;;;;;;;;21006132;28;20509;-63
2023/08/12 15:26:03;;;;;;;5.78;1.60;;;;;;;;;;21005386;28;20041;-62
2023/08/12 15:36:04;;;;;;;2.72;1.10;;;;;;;;;;21004673;28;20048;-62
2023/08/12 15:46:05;;;;;;;4.03;1.20;;;;;;;;;;21004840;28;20044;-62
2023/08/12 15:56:06;;;;;;;4.15;1.40;;;;;;;;;;21004214;28;20049;-62
2023/08/12 16:06:08;;;;;;;4.90;1.70;;;;;;;;;;21003006;28;20048;-62
2023/08/12 16:16:09;;;;;;;4.90;1.50;;;;;;;;;;21001903;28;20045;-63
2023/08/12 16:26:10;;;;;;;5.95;1.80;;;;;;;;;;21001982;28;20036;-63
2023/08/12 16:36:11;;;;;;;3.67;1.23;;;;;;;;;;21001206;28;20106;-63
2023/08/12 16:46:12;;;;;;;4.65;1.63;;;;;;;;;;20999508;28;20536;-61
2023/08/12 16:56:13;;;;;;;4.70;1.65;;;;;;;;;;20999460;28;20059;-61
2023/08/12 17:06:15;;;;;;;5.68;1.48;;;;;;;;;;20997206;28;20048;-63
2023/08/12 17:16:16;;;;;;;3.88;1.63;;;;;;;;;;20996623;28;20044;-63
2023/08/12 17:26:17;;;;;;;3.63;1.30;;;;;;;;;;20995872;28;20044;-62
2023/08/12 17:36:18;;;;;;;4.88;1.73;;;;;;;;;;20997297;28;20086;-61
2023/08/12 17:46:19;;;;;;;2.88;1.38;;;;;;;;;;20996754;28;20514;-62
2023/08/12 17:56:20;;;;;;;7.82;1.63;;;;;;;;;;20996582;28;20589;-63
2023/08/12 18:06:21;;;;;;;3.47;1.20;;;;;;;;;;20995734;28;20052;-63
2023/08/12 18:16:22;;;;;;;2.33;1.20;;;;;;;;;;20994932;28;20105;-62
2023/08/12 18:26:23;;;;;;;6.13;1.70;;;;;;;;;;20995086;28;20041;-63
2023/08/12 18:36:25;;;;;;;3.72;1.45;;;;;;;;;;21000685;28;20127;-63
2023/08/12 18:46:26;;;;;;;2.60;1.35;;;;;;;;;;21009370;28;20044;-64
2023/08/12 18:56:27;;;;;;;5.85;1.83;;;;;;;;;;21009426;28;20547;-63
2023/08/12 19:06:28;;;;;;;5.45;1.52;;;;;;;;;;21007239;28;20048;-62
2023/08/12 19:16:29;;;;;;;10.77;5.55;;;;;;;;;;21006131;28;20045;-63
2023/08/12 19:26:31;;;;;;;6.80;2.20;;;;;;;;;;21007029;28;20152;-63
2023/08/12 19:36:32;;;;;;;6.72;2.95;;;;;;;;;;21006533;28;20512;-65
2023/08/12 19:46:33;;;;;;;4.47;2.13;;;;;;;;;;21004925;28;20531;-63
2023/08/12 19:56:34;;;;;;;7.43;2.42;;;;;;;;;;21005080;28;20577;-64
2023/08/12 20:06:35;;;;;;;7.10;2.40;;;;;;;;;;21003844;28;20099;-62
2023/08/12 20:16:36;;;;;;;5.38;2.60;;;;;;;;;;21002871;28;20413;-63
2023/08/12 20:26:37;;;;;;;5.82;2.20;;;;;;;;;;21002295;28;20086;-63
2023/08/12 20:36:38;;;;;;;6.88;2.42;;;;;;;;;;21001059;28;20041;-64
2023/08/12 20:46:40;;;;;;;3.78;1.52;;;;;;;;;;21000363;28;20055;-63
2023/08/12 20:56:41;;;;;;;7.15;2.00;;;;;;;;;;20999309;28;20056;-62
2023/08/12 21:06:43;;;;;;;5.25;1.80;;;;;;;;;;20999126;28;20056;-62
2023/08/12 21:16:44;;;;;;;6.43;2.08;;;;;;;;;;20997211;28;20044;-62
2023/08/12 21:26:45;;;;;;;6.88;1.60;;;;;;;;;;20996664;28;20041;-62
2023/08/12 21:36:46;;;;;;;6.15;2.08;;;;;;;;;;20996015;28;20048;-62
2023/08/12 21:46:47;;;;;;;6.18;2.28;;;;;;;;;;20995014;28;20041;-61
2023/08/12 21:56:49;;;;;;;4.15;1.60;;;;;;;;;;20995611;28;20075;-62
2023/08/12 22:06:50;;;;;;;4.47;1.80;;;;;;;;;;20995040;28;20467;-62
2023/08/12 22:16:51;;;;;;;3.88;1.73;;;;;;;;;;21010451;28;20056;-63
2023/08/12 22:26:52;;;;;;;3.80;1.23;;;;;;;;;;21010872;28;20044;-62
2023/08/12 22:36:53;;;;;;;6.95;2.00;;;;;;;;;;21010480;28;20045;-62
2023/08/12 22:46:54;;;;;;;6.80;1.40;;;;;;;;;;21009091;28;20404;-61
2023/08/12 22:56:55;;;;;;;6.13;1.90;;;;;;;;;;21008977;28;20490;-62
2023/08/12 23:06:57;;;;;;;6.22;2.28;;;;;;;;;;21008058;28;20123;-62
2023/08/12 23:16:58;;;;;;;5.55;1.88;;;;;;;;;;21006012;28;20048;-61
2023/08/12 23:26:59;;;;;;;5.10;2.00;;;;;;;;;;21006414;28;20474;-62
2023/08/12 23:37:00;;;;;;;6.72;2.05;;;;;;;;;;21006011;28;20097;-61
2023/08/12 23:47:01;;;;;;;5.82;2.20;;;;;;;;;;21003744;28;20052;-62
2023/08/12 23:57:02;;;;;;;8.82;5.13;;;;;;;;;;21003618;28;20051;-61
